createdAt,value
2023-04-08T00:01:05.932Z,100808.72
2023-04-08T00:03:35.677Z,100804.88
2023-04-08T00:06:06.240Z,100810.88
2023-04-08T00:08:35.867Z,100801.50
2023-04-08T00:11:05.529Z,100809.72
2023-04-08T00:13:35.208Z,100801.81
2023-04-08T00:16:05.507Z,100808.03
2023-04-08T00:18:35.191Z,100814.09
2023-04-08T00:21:04.837Z,100815.25
2023-04-08T00:23:34.468Z,100816.09
2023-04-08T00:26:04.117Z,100807.91
2023-04-08T00:28:33.792Z,100813.28
2023-04-08T00:31:03.505Z,100813.78
2023-04-08T00:33:34.065Z,100813.09
2023-04-08T00:36:03.919Z,100809.75
2023-04-08T00:38:33.602Z,100802.69
2023-04-08T00:41:03.209Z,100797.53
2023-04-08T00:43:32.872Z,100793.16
2023-04-08T00:46:02.813Z,100800.72
2023-04-08T00:48:33.034Z,100802.03
2023-04-08T00:51:03.633Z,100803.41
2023-04-08T00:53:34.057Z,100798.88
2023-04-08T00:56:03.825Z,100809.28
2023-04-08T00:58:33.511Z,100806.06
2023-04-08T01:01:12.992Z,100813.78
2023-04-08T01:04:10.620Z,100802.22
2023-04-08T01:07:20.272Z,100805.72
2023-04-08T01:09:52.223Z,100794.34
2023-04-08T01:12:32.783Z,100802.88
2023-04-08T01:15:08.391Z,100809.06
2023-04-08T01:17:38.230Z,100814.94
2023-04-08T01:20:28.062Z,100803.53
2023-04-08T01:23:05.282Z,100813.09
2023-04-08T01:25:41.896Z,100812.41
2023-04-08T01:28:15.770Z,100813.25
2023-04-08T01:30:48.651Z,100809.91
2023-04-08T01:33:19.513Z,100815.94
2023-04-08T01:35:49.291Z,100804.34
2023-04-08T01:38:23.765Z,100809.59
2023-04-08T01:40:53.449Z,100814.78
2023-04-08T01:43:23.160Z,100798.81
2023-04-08T01:45:56.007Z,100801.50
2023-04-08T01:48:25.675Z,100802.19
2023-04-08T01:50:55.434Z,100796.97
2023-04-08T01:53:25.246Z,100794.31
2023-04-08T01:55:57.715Z,100794.13
2023-04-08T01:58:27.345Z,100789.06
2023-04-08T02:00:57.077Z,100790.22
2023-04-08T02:03:27.396Z,100778.13
2023-04-08T02:05:57.335Z,100790.69
2023-04-08T02:08:27.022Z,100788.66
2023-04-08T02:10:56.750Z,100784.31
2023-04-08T02:13:26.464Z,100774.06
2023-04-08T02:16:26.108Z,100774.38
2023-04-08T02:19:04.059Z,100770.31
2023-04-08T02:21:41.025Z,100776.38
2023-04-08T02:24:10.815Z,100772.66
2023-04-08T02:26:40.412Z,100779.19
2023-04-08T02:29:10.011Z,100776.50
2023-04-08T02:31:39.733Z,100774.63
2023-04-08T02:34:10.349Z,100778.47
2023-04-08T02:36:42.484Z,100779.34
2023-04-08T02:39:12.225Z,100757.16
2023-04-08T02:41:41.903Z,100768.41
2023-04-08T02:44:12.118Z,100764.03
2023-04-08T02:46:41.782Z,100761.66
2023-04-08T02:49:11.405Z,100773.91
2023-04-08T02:51:41.167Z,100770.19
2023-04-08T02:54:11.297Z,100765.66
2023-04-08T02:56:41.002Z,100757.41
2023-04-08T02:59:10.712Z,100771.81
2023-04-08T03:01:40.502Z,100759.69
2023-04-08T03:04:10.229Z,100755.16
2023-04-08T03:06:39.915Z,100774.81
2023-04-08T03:09:09.626Z,100760.03
2023-04-08T03:11:39.226Z,100757.84
2023-04-08T03:14:08.904Z,100753.69
2023-04-08T03:16:38.621Z,100757.34
2023-04-08T03:19:08.318Z,100759.50
2023-04-08T03:21:37.928Z,100747.75
2023-04-08T03:24:07.817Z,100742.25
2023-04-08T03:26:37.682Z,100754.31
2023-04-08T03:29:08.435Z,100741.38
2023-04-08T03:31:38.289Z,100741.66
2023-04-08T03:34:07.937Z,100741.91
2023-04-08T03:36:37.535Z,100737.84
2023-04-08T03:39:07.452Z,100734.97
2023-04-08T03:41:37.411Z,100736.81
2023-04-08T03:44:07.077Z,100743.38
2023-04-08T03:46:36.838Z,100738.69
2023-04-08T03:49:06.522Z,100726.91
2023-04-08T03:51:36.160Z,100731.78
2023-04-08T03:54:05.824Z,100724.22
2023-04-08T03:56:35.488Z,100713.81
2023-04-08T03:59:05.210Z,100707.78
2023-04-08T04:01:34.907Z,100708.78
2023-04-08T04:04:05.007Z,100707.88
2023-04-08T04:06:34.917Z,100704.22
2023-04-08T04:09:04.565Z,100710.47
2023-04-08T04:11:34.172Z,100694.13
2023-04-08T04:14:03.898Z,100683.03
2023-04-08T04:16:33.597Z,100685.53
2023-04-08T04:19:03.287Z,100693.19
2023-04-08T04:21:32.983Z,100682.22
2023-04-08T04:24:02.681Z,100683.69
2023-04-08T04:26:32.570Z,100680.16
2023-04-08T04:29:02.248Z,100684.22
2023-04-08T04:31:32.321Z,100684.53
2023-04-08T04:34:02.112Z,100681.00
2023-04-08T04:36:32.929Z,100678.78
2023-04-08T04:39:02.687Z,100667.19
2023-04-08T04:41:32.369Z,100677.47
2023-04-08T04:44:02.040Z,100668.28
2023-04-08T04:46:31.956Z,100669.31
2023-04-08T04:49:01.960Z,100668.81
2023-04-08T04:51:36.580Z,100658.78
2023-04-08T04:54:06.263Z,100659.63
2023-04-08T04:56:35.979Z,100655.91
2023-04-08T04:59:07.075Z,100659.09
2023-04-08T05:01:36.990Z,100650.28
2023-04-08T05:04:06.940Z,100643.47
2023-04-08T05:06:36.569Z,100645.34
2023-04-08T05:09:06.312Z,100642.59
2023-04-08T05:11:35.985Z,100633.22
2023-04-08T05:14:05.609Z,100629.22
2023-04-08T05:16:35.961Z,100633.81
2023-04-08T05:19:05.647Z,100641.00
2023-04-08T05:21:35.392Z,100634.94
2023-04-08T05:26:34.672Z,100636.44
2023-04-08T05:29:04.263Z,100633.50
2023-04-08T05:31:33.969Z,100624.03
2023-04-08T05:34:03.686Z,100625.41
2023-04-08T05:36:33.993Z,100628.72
2023-04-08T05:39:03.613Z,100622.88
2023-04-08T05:41:33.248Z,100615.06
2023-04-08T05:44:02.981Z,100610.81
2023-04-08T05:46:32.726Z,100614.59
2023-04-08T05:49:02.351Z,100612.38
2023-04-08T05:51:32.334Z,100618.59
2023-04-08T05:54:02.020Z,100613.66
2023-04-08T05:56:33.703Z,100604.97
2023-04-08T06:01:32.714Z,100607.31
2023-04-08T06:04:02.498Z,100614.03
2023-04-08T06:06:32.223Z,100610.69
2023-04-08T06:09:02.026Z,100610.63
2023-04-08T06:11:31.836Z,100610.34
2023-04-08T06:14:01.477Z,100618.44
2023-04-08T06:16:31.202Z,100607.69
2023-04-08T06:19:00.807Z,100593.28
2023-04-08T06:21:30.531Z,100594.09
2023-04-08T06:24:00.142Z,100589.25
2023-04-08T06:26:29.817Z,100586.34
2023-04-08T06:28:59.503Z,100584.84
2023-04-08T06:31:29.208Z,100589.84
2023-04-08T06:33:58.824Z,100600.47
2023-04-08T06:36:29.866Z,100612.00
2023-04-08T06:41:28.556Z,100602.50
2023-04-08T06:43:58.245Z,100601.97
2023-04-08T06:46:28.172Z,100621.31
2023-04-08T06:48:57.917Z,100613.91
2023-04-08T06:51:27.519Z,100603.59
2023-04-08T06:53:57.836Z,100613.75
2023-04-08T06:56:27.822Z,100621.44
2023-04-08T06:58:57.626Z,100621.28
2023-04-08T07:01:27.421Z,100618.94
2023-04-08T07:03:57.204Z,100633.41
2023-04-08T07:06:27.070Z,100632.31
2023-04-08T07:08:56.725Z,100627.84
2023-04-08T07:11:26.370Z,100628.22
2023-04-08T07:13:56.078Z,100627.00
2023-04-08T07:16:25.798Z,100627.19
2023-04-08T07:18:55.453Z,100635.25
2023-04-08T07:21:25.122Z,100626.88
2023-04-08T07:23:54.776Z,100633.25
2023-04-08T07:26:24.956Z,100620.00
2023-04-08T07:28:54.579Z,100630.63
2023-04-08T07:31:24.355Z,100623.22
2023-04-08T07:33:54.109Z,100637.78
2023-04-08T07:36:23.756Z,100622.84
2023-04-08T07:38:53.498Z,100625.69
2023-04-08T07:41:23.221Z,100640.31
2023-04-08T07:43:52.867Z,100628.22
2023-04-08T07:46:22.744Z,100630.56
2023-04-08T07:48:53.465Z,100635.81
2023-04-08T07:51:23.154Z,100641.88
2023-04-08T07:53:52.779Z,100635.47
2023-04-08T07:56:23.969Z,100640.38
2023-04-08T07:58:54.268Z,100642.94
2023-04-08T08:01:25.100Z,100637.38
2023-04-08T08:03:55.112Z,100645.25
2023-04-08T08:06:25.191Z,100643.56
2023-04-08T08:08:54.809Z,100641.38
2023-04-08T08:11:24.449Z,100648.31
2023-04-08T08:13:54.074Z,100646.94
2023-04-08T08:16:23.722Z,100649.13
2023-04-08T08:18:53.373Z,100644.94
2023-04-08T08:21:23.068Z,100646.13
2023-04-08T08:23:55.935Z,100651.00
2023-04-08T08:26:26.382Z,100647.28
2023-04-08T08:28:56.235Z,100649.63
2023-04-08T08:31:25.944Z,100652.00
2023-04-08T08:33:55.539Z,100654.69
2023-04-08T08:36:25.199Z,100650.34
2023-04-08T08:38:55.738Z,100653.34
2023-04-08T08:41:25.534Z,100662.06
2023-04-08T08:43:55.156Z,100657.88
2023-04-08T08:46:24.811Z,100660.38
2023-04-08T08:48:54.492Z,100663.09
2023-04-08T08:51:24.286Z,100665.78
2023-04-08T08:53:54.260Z,100663.41
2023-04-08T08:56:24.100Z,100666.84
2023-04-08T08:58:53.731Z,100668.84
2023-04-08T09:01:40.228Z,100659.28
2023-04-08T09:04:18.599Z,100668.84
2023-04-08T09:06:52.607Z,100669.00
2023-04-08T09:09:22.356Z,100656.59
2023-04-08T09:11:52.175Z,100664.47
2023-04-08T09:14:21.846Z,100668.69
2023-04-08T09:16:51.850Z,100668.00
2023-04-08T09:19:21.935Z,100659.56
2023-04-08T09:22:08.458Z,100665.94
2023-04-08T09:24:38.772Z,100675.00
2023-04-08T09:27:08.378Z,100667.63
2023-04-08T09:29:40.059Z,100665.31
2023-04-08T09:32:09.924Z,100669.53
2023-04-08T09:34:39.644Z,100675.06
2023-04-08T09:37:09.556Z,100676.91
2023-04-08T09:39:39.164Z,100682.09
2023-04-08T09:42:09.852Z,100678.25
2023-04-08T09:44:39.472Z,100673.72
2023-04-08T09:47:21.765Z,100677.06
2023-04-08T09:49:58.130Z,100670.72
2023-04-08T09:52:32.853Z,100675.06
2023-04-08T09:55:06.245Z,100682.78
2023-04-08T09:57:56.451Z,100682.63
2023-04-08T10:00:30.972Z,100682.31
2023-04-08T10:03:04.412Z,100686.03
2023-04-08T10:05:34.302Z,100691.22
2023-04-08T10:08:03.929Z,100687.53
2023-04-08T10:10:33.577Z,100694.91
2023-04-08T10:13:03.324Z,100693.56
2023-04-08T10:15:33.844Z,100699.44
2023-04-08T10:18:09.268Z,100697.78
2023-04-08T10:20:39.055Z,100703.84
2023-04-08T10:23:14.730Z,100705.19
2023-04-08T10:25:48.293Z,100713.44
2023-04-08T10:28:21.004Z,100715.09
2023-04-08T10:30:54.598Z,100725.66
2023-04-08T10:33:31.711Z,100722.78
2023-04-08T10:36:13.510Z,100725.66
2023-04-08T10:38:46.347Z,100729.88
2023-04-08T10:41:22.998Z,100730.38
2023-04-08T10:43:52.775Z,100736.72
2023-04-08T10:46:23.900Z,100741.63
2023-04-08T10:49:03.389Z,100737.94
2023-04-08T10:51:37.056Z,100748.50
2023-04-08T10:54:14.764Z,100749.00
2023-04-08T10:56:48.210Z,100758.91
2023-04-08T10:59:19.337Z,100759.72
2023-04-08T11:01:49.204Z,100773.84
2023-04-08T11:04:24.894Z,100772.50
2023-04-08T11:06:55.158Z,100776.53
2023-04-08T11:09:24.843Z,100779.91
2023-04-08T11:11:55.173Z,100785.97
2023-04-08T11:14:25.719Z,100783.59
2023-04-08T11:16:55.379Z,100786.78
2023-04-08T11:19:25.029Z,100777.72
2023-04-08T11:21:54.671Z,100782.59
2023-04-08T11:24:24.379Z,100778.56
2023-04-08T11:26:54.003Z,100786.78
2023-04-08T11:29:23.828Z,100798.22
2023-04-08T11:31:53.490Z,100806.72
2023-04-08T11:34:26.515Z,100811.41
2023-04-08T11:36:56.224Z,100822.69
2023-04-08T11:39:25.975Z,100826.03
2023-04-08T11:41:55.579Z,100835.75
2023-04-08T11:44:33.791Z,100831.22
2023-04-08T11:47:06.372Z,100847.00
2023-04-08T11:49:48.837Z,100842.47
2023-04-08T11:52:18.514Z,100855.38
2023-04-08T11:54:48.620Z,100852.03
2023-04-08T11:57:20.020Z,100856.56
2023-04-08T11:59:50.214Z,100863.78
2023-04-08T12:02:19.996Z,100863.59
2023-04-08T12:04:49.802Z,100863.28
2023-04-08T12:07:19.722Z,100866.44
2023-04-08T12:09:49.384Z,100861.75
2023-04-08T12:12:19.025Z,100866.78
2023-04-08T12:14:48.671Z,100862.28
2023-04-08T12:17:18.402Z,100857.25
2023-04-08T12:19:48.359Z,100863.94
2023-04-08T12:22:18.335Z,100869.13
2023-04-08T12:24:47.973Z,100867.63
2023-04-08T12:27:17.617Z,100871.31
2023-04-08T12:29:47.782Z,100871.81
2023-04-08T12:32:17.643Z,100870.59
2023-04-08T12:34:47.416Z,100872.25
2023-04-08T12:37:17.052Z,100868.78
2023-04-08T12:39:47.460Z,100866.41
2023-04-08T12:42:17.293Z,100863.88
2023-04-08T12:44:46.975Z,100867.25
2023-04-08T12:47:16.767Z,100868.09
2023-04-08T12:49:49.870Z,100869.56
2023-04-08T12:52:20.273Z,100858.53
2023-04-08T12:54:49.880Z,100858.19
2023-04-08T12:57:19.539Z,100868.41
2023-04-08T12:59:49.270Z,100865.72
2023-04-08T13:02:18.924Z,100862.72
2023-04-08T13:04:49.206Z,100872.78
2023-04-08T13:07:18.877Z,100875.28
2023-04-08T13:09:51.500Z,100881.16
2023-04-08T13:12:21.249Z,100882.81
2023-04-08T13:14:50.851Z,100881.31
2023-04-08T13:17:20.525Z,100880.31
2023-04-08T13:19:51.626Z,100881.16
2023-04-08T13:22:21.333Z,100875.78
2023-04-08T13:24:51.013Z,100880.97
2023-04-08T13:27:20.695Z,100882.31
2023-04-08T13:29:50.366Z,100872.72
2023-04-08T13:32:20.035Z,100872.72
2023-04-08T13:34:49.733Z,100870.41
2023-04-08T13:37:19.389Z,100866.19
2023-04-08T13:39:49.598Z,100871.88
2023-04-08T13:42:19.292Z,100871.38
2023-04-08T13:44:48.999Z,100873.03
2023-04-08T13:47:18.924Z,100877.56
2023-04-08T13:49:48.627Z,100888.59
2023-04-08T13:52:18.864Z,100896.66
2023-04-08T13:54:48.562Z,100898.50
2023-04-08T13:57:18.169Z,100898.66
2023-04-08T13:59:47.805Z,100891.78
2023-04-08T14:02:17.499Z,100891.78
2023-04-08T14:04:47.782Z,100887.41
2023-04-08T14:07:17.671Z,100891.09
2023-04-08T14:09:47.783Z,100891.63
2023-04-08T14:12:17.387Z,100894.47
2023-04-08T14:14:47.004Z,100891.59
2023-04-08T14:17:17.123Z,100892.13
2023-04-08T14:19:46.869Z,100896.97
2023-04-08T14:22:17.458Z,100896.78
2023-04-08T14:24:47.172Z,100897.97
2023-04-08T14:27:16.937Z,100899.81
2023-04-08T14:29:46.555Z,100899.81
2023-04-08T14:32:16.212Z,100901.31
2023-04-08T14:34:46.257Z,100901.47
2023-04-08T14:37:16.556Z,100898.13
2023-04-08T14:39:47.607Z,100906.00
2023-04-08T14:42:18.210Z,100900.81
2023-04-08T14:44:47.873Z,100899.13
2023-04-08T14:47:17.637Z,100910.84
2023-04-08T14:49:47.517Z,100911.53
2023-04-08T14:52:17.444Z,100912.50
2023-04-08T14:54:48.445Z,100926.63
2023-04-08T14:57:18.303Z,100924.06
2023-04-08T14:59:47.957Z,100921.56
2023-04-08T15:02:17.832Z,100927.28
2023-04-08T15:04:47.472Z,100933.28
2023-04-08T15:07:17.344Z,100938.19
2023-04-08T15:09:47.058Z,100940.50
2023-04-08T15:12:16.819Z,100937.47
2023-04-08T15:14:46.417Z,100932.28
2023-04-08T15:17:16.071Z,100936.81
2023-04-08T15:19:45.817Z,100940.50
2023-04-08T15:22:15.462Z,100944.03
2023-04-08T15:24:46.282Z,100955.06
2023-04-08T15:27:17.664Z,100955.75
2023-04-08T15:29:47.656Z,100959.25
2023-04-08T15:32:17.339Z,100957.41
2023-04-08T15:34:47.005Z,100949.69
2023-04-08T15:37:16.956Z,100954.22
2023-04-08T15:39:47.212Z,100953.38
2023-04-08T15:42:16.840Z,100952.72
2023-04-08T15:44:46.500Z,100947.19
2023-04-08T15:47:16.134Z,100944.81
2023-04-08T15:49:46.364Z,100950.34
2023-04-08T15:52:16.025Z,100954.03
2023-04-08T15:54:45.650Z,100950.50
2023-04-08T15:57:16.338Z,100954.19
2023-04-08T15:59:46.239Z,100954.03
2023-04-08T16:02:15.962Z,100953.31
2023-04-08T16:04:45.794Z,100956.53
2023-04-08T16:07:15.547Z,100954.84
2023-04-08T16:09:45.506Z,100956.69
2023-04-08T16:12:16.396Z,100952.47
2023-04-08T16:14:46.009Z,100964.03
2023-04-08T16:17:15.980Z,100955.50
2023-04-08T16:19:45.608Z,100956.88
2023-04-08T16:22:15.225Z,100950.63
2023-04-08T16:24:44.911Z,100952.19
2023-04-08T16:27:14.529Z,100957.00
2023-04-08T16:29:44.612Z,100952.66
2023-04-08T16:32:14.339Z,100950.81
2023-04-08T16:34:43.958Z,100955.16
2023-04-08T16:37:14.918Z,100958.00
2023-04-08T16:39:44.795Z,100947.59
2023-04-08T16:42:14.539Z,100951.66
2023-04-08T16:44:44.265Z,100949.81
2023-04-08T16:47:13.925Z,100951.50
2023-04-08T16:49:43.548Z,100959.38
2023-04-08T16:52:13.373Z,100956.00
2023-04-08T16:54:44.881Z,100953.31
2023-04-08T16:57:14.711Z,100946.63
2023-04-08T16:59:44.521Z,100951.97
2023-04-08T17:02:14.210Z,100952.97
2023-04-08T17:04:43.858Z,100952.97
2023-04-08T17:07:14.553Z,100949.97
2023-04-08T17:09:44.370Z,100948.59
2023-04-08T17:12:14.001Z,100950.44
2023-04-08T17:14:43.594Z,100940.72
2023-04-08T17:17:13.241Z,100941.75
2023-04-08T17:19:43.428Z,100939.91
2023-04-08T17:22:13.026Z,100938.34
2023-04-08T17:24:42.651Z,100938.22
2023-04-08T17:27:12.244Z,100941.56
2023-04-08T17:29:42.091Z,100934.00
2023-04-08T17:32:12.300Z,100936.50
2023-04-08T17:34:42.628Z,100939.06
2023-04-08T17:37:12.355Z,100940.19
2023-04-08T17:39:42.548Z,100934.84
2023-04-08T17:42:12.469Z,100933.13
2023-04-08T17:44:43.720Z,100943.72
2023-04-08T17:47:13.391Z,100939.38
2023-04-08T17:49:43.051Z,100942.75
2023-04-08T17:52:12.651Z,100931.47
2023-04-08T17:54:42.949Z,100932.28
2023-04-08T17:57:12.623Z,100922.28
2023-04-08T17:59:42.351Z,100931.16
2023-04-08T18:02:12.233Z,100936.81
2023-04-08T18:04:43.328Z,100938.34
2023-04-08T18:07:13.037Z,100928.66
2023-04-08T18:09:42.951Z,100926.94
2023-04-08T18:12:12.930Z,100931.75
2023-04-08T18:14:42.658Z,100922.28
2023-04-08T18:17:12.385Z,100926.09
2023-04-08T18:19:42.067Z,100925.09
2023-04-08T18:22:11.708Z,100934.13
2023-04-08T18:24:41.387Z,100928.78
2023-04-08T18:27:11.517Z,100935.81
2023-04-08T18:29:41.143Z,100934.53
2023-04-08T18:32:10.716Z,100928.91
2023-04-08T18:34:40.638Z,100929.25
2023-04-08T18:37:12.390Z,100927.94
2023-04-08T18:39:44.843Z,100931.75
2023-04-08T18:42:14.487Z,100935.28
2023-04-08T18:44:44.397Z,100934.63
2023-04-08T18:47:14.052Z,100919.22
2023-04-08T18:49:43.758Z,100931.59
2023-04-08T18:52:13.660Z,100919.91
2023-04-08T18:54:43.436Z,100930.44
2023-04-08T18:57:13.188Z,100934.13
2023-04-08T18:59:43.002Z,100925.56
2023-04-08T19:02:12.730Z,100918.72
2023-04-08T19:04:42.478Z,100924.91
2023-04-08T19:07:13.428Z,100919.69
2023-04-08T19:09:43.258Z,100922.53
2023-04-08T19:12:12.949Z,100918.53
2023-04-08T19:14:43.593Z,100915.31
2023-04-08T19:17:13.354Z,100916.16
2023-04-08T19:19:43.420Z,100919.69
2023-04-08T19:22:13.048Z,100920.69
2023-04-08T19:24:42.678Z,100919.84
2023-04-08T19:27:12.363Z,100914.78
2023-04-08T19:29:42.336Z,100912.97
2023-04-08T19:32:12.036Z,100917.34
2023-04-08T19:34:42.051Z,100907.63
2023-04-08T19:37:12.148Z,100907.63
2023-04-08T19:39:42.146Z,100905.91
2023-04-08T19:42:13.565Z,100907.44
2023-04-08T19:44:43.229Z,100909.28
2023-04-08T19:47:13.186Z,100895.38
2023-04-08T19:49:42.765Z,100896.91
2023-04-08T19:52:12.509Z,100899.59
2023-04-08T19:54:42.903Z,100891.69
2023-04-08T19:57:13.839Z,100894.22
2023-04-08T19:59:43.481Z,100895.91
2023-04-08T20:02:13.310Z,100902.75
2023-04-08T20:04:43.052Z,100895.91
2023-04-08T20:07:12.767Z,100899.59
2023-04-08T20:09:42.469Z,100897.88
2023-04-08T20:12:12.336Z,100894.06
2023-04-08T20:14:44.678Z,100906.75
2023-04-08T20:17:16.954Z,100891.56
2023-04-08T20:19:49.408Z,100896.91
2023-04-08T20:22:19.131Z,100897.03
2023-04-08T20:24:52.005Z,100902.25
2023-04-08T20:27:21.619Z,100901.72
2023-04-08T20:29:51.344Z,100897.88
2023-04-08T20:32:21.698Z,100889.84
2023-04-08T20:34:54.236Z,100894.22
2023-04-08T20:37:24.260Z,100898.59
2023-04-08T20:39:54.094Z,100898.59
2023-04-08T20:42:24.190Z,100895.38
2023-04-08T20:44:53.885Z,100888.50
2023-04-08T20:47:23.636Z,100895.19
2023-04-08T20:49:53.716Z,100897.03
2023-04-08T20:52:23.425Z,100902.75
2023-04-08T20:54:53.056Z,100915.28
2023-04-08T20:57:22.720Z,100903.03
2023-04-08T20:59:52.339Z,100908.75
2023-04-08T21:02:23.174Z,100911.75
2023-04-08T21:04:52.929Z,100912.63
2023-04-08T21:07:22.625Z,100920.78
2023-04-08T21:09:52.313Z,100918.13
2023-04-08T21:12:22.102Z,100919.94
2023-04-08T21:14:52.419Z,100923.34
2023-04-08T21:17:22.133Z,100915.59
2023-04-08T21:19:51.976Z,100915.28
2023-04-08T21:22:21.801Z,100911.63
2023-04-08T21:24:51.426Z,100919.78
2023-04-08T21:27:21.095Z,100918.44
2023-04-08T21:29:54.302Z,100927.81
2023-04-08T21:32:24.062Z,100932.34
2023-04-08T21:34:56.676Z,100935.84
2023-04-08T21:37:26.378Z,100932.22
2023-04-08T21:39:56.089Z,100945.59
2023-04-08T21:42:26.695Z,100947.28
2023-04-08T21:44:56.466Z,100950.78
2023-04-08T21:47:26.191Z,100947.44
2023-04-08T21:49:57.351Z,100939.41
2023-04-08T21:52:28.131Z,100938.91
2023-04-08T21:54:57.730Z,100941.91
2023-04-08T21:57:27.748Z,100940.91
2023-04-08T21:59:57.580Z,100951.94
2023-04-08T22:02:27.802Z,100946.75
2023-04-08T22:04:58.008Z,100942.22
2023-04-08T22:07:27.804Z,100938.53
2023-04-08T22:09:57.913Z,100945.75
2023-04-08T22:12:27.623Z,100945.75
2023-04-08T22:14:57.352Z,100944.38
2023-04-08T22:17:27.927Z,100940.00
2023-04-08T22:19:57.668Z,100939.72
2023-04-08T22:22:27.479Z,100942.56
2023-04-08T22:24:57.192Z,100929.16
2023-04-08T22:27:26.937Z,100923.81
2023-04-08T22:29:56.669Z,100930.13
2023-04-08T22:32:26.409Z,100926.31
2023-04-08T22:34:56.029Z,100937.34
2023-04-08T22:37:25.648Z,100927.16
2023-04-08T22:39:55.257Z,100928.16
2023-04-08T22:42:24.962Z,100920.97
2023-04-08T22:44:54.666Z,100927.16
2023-04-08T22:47:24.505Z,100928.16
2023-04-08T22:49:54.234Z,100928.00
2023-04-08T22:52:23.901Z,100923.81
2023-04-08T22:54:53.515Z,100929.91
2023-04-08T22:57:23.201Z,100932.88
2023-04-08T22:59:52.832Z,100929.38
2023-04-08T23:02:22.606Z,100924.84
2023-04-08T23:04:57.573Z,100919.31
2023-04-08T23:07:27.407Z,100924.31
2023-04-08T23:09:57.112Z,100927.69
2023-04-08T23:12:26.685Z,100925.69
2023-04-08T23:14:56.414Z,100920.16
2023-04-08T23:17:26.141Z,100912.97
2023-04-08T23:19:55.794Z,100918.84
2023-04-08T23:22:25.424Z,100921.53
2023-04-08T23:24:55.130Z,100919.53
2023-04-08T23:27:24.776Z,100925.56
2023-04-08T23:29:54.487Z,100916.50
2023-04-08T23:32:24.295Z,100921.22
2023-04-08T23:34:53.972Z,100911.50
2023-04-08T23:37:23.613Z,100913.53
2023-04-08T23:39:53.533Z,100919.72
2023-04-08T23:42:28.402Z,100918.75
2023-04-08T23:44:58.119Z,100911.69
2023-04-08T23:47:27.754Z,100915.25
2023-04-08T23:49:57.464Z,100911.09
2023-04-08T23:52:27.483Z,100919.59
2023-04-08T23:54:57.174Z,100903.88
2023-04-08T23:57:26.921Z,100901.53
2023-04-08T23:59:56.578Z,100908.03
